Super Servant 4 — PJPO — position and weather

sailwx.info

Track history (hours):
 
Tides and Currents Weather Stations Pressure Air Temp Water Temp Dewpoint Dewpoint Depression Visibility Wind Speed Wind Dir Waves Ship Positions

Super Servant 4

Last reported at 2018-Aug-07 04:26 UTC. Time now 2018-Aug-21 04:19 UTC.
Position N 40°52' W 011°06'.
Warning: this ship's position is 13 days out of date.

Length 139 m; beam 32 m.

Type: Cargo ship. MMSI: 306157000.

Date/timePositionNaut miles runAvg speedWind from/ knotsBaromVisibWave heightAir tempDewpointWater temp
2018-Aug-07 04:26N 40°52' W 011°06'611.9
2018-Aug-07 03:57N 40°57' W 011°03'51912.5
2018-Aug-05 10:20N 48°47' W 005°53'512.2
2018-Aug-05 09:55N 48°51' W 005°49'511.5
2018-Aug-05 09:30N 48°55' W 005°45'1211.4
2018-Aug-05 08:28N 49°01' W 005°30'4 8.2
2018-Aug-05 07:59N 49°03' W 005°25'5 9.6
2018-Aug-05 07:29N 49°06' W 005°18'611.8
2018-Aug-05 06:59N 49°09' W 005°11'612.0
2018-Aug-05 06:30N 49°12' W 005°03'612.6
2018-Aug-05 06:01N 49°15' W 004°55'713.1
2018-Aug-05 05:30N 49°19' W 004°47'1313.5
2018-Aug-05 04:32N 49°25' W 004°29'013.7
2018-Aug-05 04:30N 49°25' W 004°29'713.7
2018-Aug-05 03:59N 49°29' W 004°19'1613.5
2018-Aug-05 02:49N 49°37' W 003°58'413.0
2018-Aug-05 02:30N 49°39' W 003°53'612.8
2018-Aug-05 02:00N 49°42' W 003°44'812.5
2018-Aug-05 01:20N 49°46' W 003°33'512.1
2018-Aug-05 00:56N 49°49' W 003°27'511.9
2018-Aug-05 00:31N 49°52' W 003°20'611.8
2018-Aug-05 00:01N 49°54' W 003°12'611.6
2018-Aug-04 23:31N 49°57' W 003°04'611.7
2018-Aug-04 23:01N 49°60' W 002°56'611.8
2018-Aug-04 22:31N 50°02' W 002°47'612.0
2018-Aug-04 22:00N 50°03' W 002°38'612.4
2018-Aug-04 21:30N 50°05' W 002°29'612.8
2018-Aug-04 21:00N 50°06' W 002°19'713.4
2018-Aug-04 20:31N 50°08' W 002°09'713.9
2018-Aug-04 20:00N 50°10' W 001°59'1814.6
2018-Aug-04 18:46N 50°15' W 001°32'2814.4
2018-Aug-04 16:50N 50°22' W 000°49'1612.6
2018-Aug-04 15:35N 50°26' W 000°26'112.0
2018-Aug-04 15:30N 50°26' W 000°24'1311.4
2018-Aug-04 14:20N 50°30' W 000°04'410.8
2018-Aug-04 13:59N 50°31' E 000°01'710.8
2018-Aug-04 13:21N 50°33' E 000°12'410.7
2018-Aug-04 13:00N 50°34' E 000°18'611.1
2018-Aug-04 12:30N 50°35' E 000°26'611.7
2018-Aug-04 12:00N 50°37' E 000°35'612.4
2018-Aug-04 11:30N 50°41' E 000°43'713.2
2018-Aug-04 11:00N 50°45' E 000°51'713.7
2018-Aug-04 10:30N 50°48' E 001°00'714.0
2018-Aug-04 10:00N 50°53' E 001°09'714.1
2018-Aug-04 09:30N 50°58' E 001°17'714.0
2018-Aug-04 09:00N 51°02' E 001°25'713.1
2018-Aug-04 08:30N 51°07' E 001°33'612.1
2018-Aug-04 08:00N 51°11' E 001°40'611.7
2018-Aug-04 07:30N 51°15' E 001°47'611.2
2018-Aug-04 07:00N 51°20' E 001°51'510.9
2018-Aug-04 06:30N 51°25' E 001°55'510.8
2018-Aug-04 06:00N 51°29' E 001°59'510.9
2018-Aug-04 05:30N 51°33' E 002°05'611.1
2018-Aug-04 05:00N 51°38' E 002°11'611.3
2018-Aug-04 04:30N 51°42' E 002°17'611.7
2018-Aug-04 04:00N 51°46' E 002°23'612.2
2018-Aug-04 03:30N 51°51' E 002°30'612.7
2018-Aug-04 03:00N 51°55' E 002°37'612.8
2018-Aug-04 02:30N 51°59' E 002°45'713.1
2018-Aug-04 02:00N 52°02' E 002°55'612.6
2018-Aug-04 01:30N 52°03' E 003°05'612.9
2018-Aug-04 01:00N 52°04' E 003°15'713.0
2018-Aug-04 00:30N 52°04' E 003°26'713.0
2018-Aug-04 00:00N 52°04' E 003°36'612.5
2018-Aug-03 23:30N 52°03' E 003°46'511.0
2018-Aug-03 23:00N 52°02' E 003°55'510.9
2018-Aug-03 22:30N 51°59' E 004°03'612.4
2018-Aug-03 22:00N 51°56' E 004°12'611.1
2018-Aug-03 21:30N 51°54' E 004°20'4 7.8
2018-Aug-03 21:01N 51°54' E 004°26'1 2.4
2018-Aug-03 20:30N 51°53' E 004°27'0 0.0
2018-Aug-03 20:00N 51°53' E 004°27'0 0.0
2018-Aug-03 19:30N 51°53' E 004°27'0 0.0
2018-Aug-03 19:00N 51°53' E 004°27'0 0.0
2018-Aug-03 18:30N 51°53' E 004°27'0 0.0
2018-Aug-03 18:00N 51°53' E 004°27'0 0.0
2018-Aug-03 17:30N 51°53' E 004°27'0 0.0
2018-Aug-03 17:00N 51°53' E 004°27'0 0.0
2018-Aug-03 16:30N 51°53' E 004°27'0 0.0
2018-Aug-03 16:00N 51°53' E 004°27'0 0.0
2018-Aug-03 15:30N 51°53' E 004°27'0 0.0
2018-Aug-03 15:00N 51°53' E 004°27'0 0.0
2018-Aug-03 14:30N 51°53' E 004°27'0 0.0
2018-Aug-03 14:00N 51°53' E 004°27'0 0.0
2018-Aug-03 13:30N 51°53' E 004°27'0 0.0
2018-Aug-03 13:00N 51°53' E 004°27'0 0.0
2018-Aug-03 12:30N 51°53' E 004°27'0 0.0
2018-Aug-03 12:00N 51°53' E 004°27'0 0.0
2018-Aug-03 11:30N 51°53' E 004°27'0 0.0
2018-Aug-03 11:00N 51°53' E 004°27'0 0.0
2018-Aug-03 10:30N 51°53' E 004°27'0 0.0
2018-Aug-03 10:00N 51°53' E 004°27'0 0.0
2018-Aug-03 09:30N 51°53' E 004°27'0 0.0
2018-Aug-03 09:00N 51°53' E 004°27'0 0.0
2018-Aug-03 08:30N 51°53' E 004°27'0 0.0
2018-Aug-03 08:00N 51°53' E 004°27'0 0.0
2018-Aug-03 07:30N 51°53' E 004°27'0 0.0
2018-Aug-03 07:00N 51°53' E 004°27'0 0.0
2018-Aug-03 06:30N 51°53' E 004°27'0 0.0
2018-Aug-03 06:00N 51°53' E 004°27'0 0.0
2018-Aug-03 05:30N 51°53' E 004°27'0 0.0
2018-Aug-03 05:00N 51°53' E 004°27'0 0.0
2018-Aug-03 04:30N 51°53' E 004°27'0 0.0
2018-Aug-03 04:00N 51°53' E 004°27'0 0.0
2018-Aug-03 03:30N 51°53' E 004°27'0 0.0
2018-Aug-03 03:00N 51°53' E 004°27'0 0.0
2018-Aug-03 02:30N 51°53' E 004°27'0 0.0
2018-Aug-03 02:00N 51°53' E 004°27'0 0.0
2018-Aug-03 01:30N 51°53' E 004°27'0 0.0
2018-Aug-03 01:00N 51°53' E 004°27'0 0.0
2018-Aug-03 00:30N 51°53' E 004°27'0 0.0
2018-Aug-03 00:00N 51°53' E 004°27'0 0.0
2018-Aug-02 23:30N 51°53' E 004°27'0 0.0
2018-Aug-02 23:00N 51°53' E 004°27'0 0.0
2018-Aug-02 22:30N 51°53' E 004°27'0 0.0
2018-Aug-02 22:00N 51°53' E 004°27'0 0.0
2018-Aug-02 21:30N 51°53' E 004°27'0 0.0
2018-Aug-02 21:00N 51°53' E 004°27'0 0.0
2018-Aug-02 20:30N 51°53' E 004°27'0 0.0
2018-Aug-02 20:00N 51°53' E 004°27'0 0.0
2018-Aug-02 19:30N 51°53' E 004°27'0 0.0
2018-Aug-02 19:00N 51°53' E 004°27'0 0.0
2018-Aug-02 18:30N 51°53' E 004°27'0 0.0
2018-Aug-02 18:00N 51°53' E 004°27'0 0.0
2018-Aug-02 17:30N 51°53' E 004°27'0 0.0
2018-Aug-02 17:00N 51°53' E 004°27'0 0.0
2018-Aug-02 16:30N 51°53' E 004°27'0 0.0
2018-Aug-02 16:00N 51°53' E 004°27'0 0.0
2018-Aug-02 15:30N 51°53' E 004°27'0 0.0
2018-Aug-02 15:00N 51°53' E 004°27'0 0.0
2018-Aug-02 14:30N 51°53' E 004°27'0 0.0
2018-Aug-02 14:00N 51°53' E 004°27'0 0.0
2018-Aug-02 13:30N 51°53' E 004°27'0 0.0
2018-Aug-02 13:00N 51°53' E 004°27'0 0.0
2018-Aug-02 12:30N 51°53' E 004°27'0 0.0
2018-Aug-02 12:00N 51°53' E 004°27'0 0.0
2018-Aug-02 11:30N 51°53' E 004°27'0 0.0
2018-Aug-02 11:00N 51°53' E 004°27'0 0.0
2018-Aug-02 10:30N 51°53' E 004°27'0 0.0
2018-Aug-02 10:00N 51°53' E 004°27'0 0.0
2018-Aug-02 09:30N 51°53' E 004°27'0 0.0
2018-Aug-02 09:00N 51°53' E 004°27'0 0.0
2018-Aug-02 08:30N 51°53' E 004°27'0 0.0
2018-Aug-02 08:00N 51°53' E 004°27'0 0.0
2018-Aug-02 07:30N 51°53' E 004°27'0 0.0
2018-Aug-02 07:00N 51°53' E 004°27'0 0.0
2018-Aug-02 06:30N 51°53' E 004°27'0 0.0
2018-Aug-02 06:00N 51°53' E 004°27'0 0.0
2018-Aug-02 05:30N 51°53' E 004°27'0 0.0
2018-Aug-02 05:00N 51°53' E 004°27'0 0.0
2018-Aug-02 04:30N 51°53' E 004°27'0 0.0
2018-Aug-02 04:00N 51°53' E 004°27'0 0.0
2018-Aug-02 03:30N 51°53' E 004°27'0 0.0
2018-Aug-02 03:00N 51°53' E 004°27'0 0.0
2018-Aug-02 02:30N 51°53' E 004°27'0 0.0
2018-Aug-02 02:00N 51°53' E 004°27'0 0.0
2018-Aug-02 01:30N 51°53' E 004°27'0 0.0
2018-Aug-02 00:57N 51°53' E 004°27'0 0.0
2018-Aug-02 00:30N 51°53' E 004°27'0 0.0
2018-Aug-02 00:00N 51°53' E 004°27'0 0.0
2018-Aug-01 23:30N 51°53' E 004°27'0 0.0
2018-Aug-01 23:00N 51°53' E 004°27'0 0.0
2018-Aug-01 22:30N 51°53' E 004°27'0 0.0
2018-Aug-01 22:00N 51°53' E 004°27'0 0.0
2018-Aug-01 21:30N 51°53' E 004°27'0 0.0
2018-Aug-01 21:00N 51°53' E 004°27'0 0.0
2018-Aug-01 20:30N 51°53' E 004°27'0 0.0
2018-Aug-01 20:00N 51°53' E 004°27'0 0.0
2018-Aug-01 19:30N 51°53' E 004°27'0 0.0
2018-Aug-01 19:00N 51°53' E 004°27'0 0.0
2018-Aug-01 18:30N 51°53' E 004°27'0 0.0
2018-Aug-01 18:00N 51°53' E 004°27'0 0.0
2018-Aug-01 17:30N 51°53' E 004°27'0 0.0
2018-Aug-01 17:00N 51°53' E 004°27'0 0.0
2018-Aug-01 16:30N 51°53' E 004°27'0 0.0
2018-Aug-01 16:00N 51°53' E 004°27'0 0.0
2018-Aug-01 15:30N 51°53' E 004°27'0 0.0
2018-Aug-01 15:00N 51°53' E 004°27'0 0.0
2018-Aug-01 14:00N 51°53' E 004°27'0 0.0
2018-Aug-01 13:30N 51°53' E 004°27'0 0.0
2018-Aug-01 13:00N 51°53' E 004°27'0 0.0
2018-Aug-01 12:30N 51°53' E 004°27'0 0.0
2018-Aug-01 12:00N 51°53' E 004°27'0 0.0
2018-Aug-01 11:30N 51°53' E 004°27'0 0.0
2018-Aug-01 11:00N 51°53' E 004°27'0 0.0
2018-Aug-01 10:30N 51°53' E 004°27'0 0.0
2018-Aug-01 10:00N 51°53' E 004°27'0 0.0
2018-Aug-01 09:30N 51°53' E 004°27'0 0.0
2018-Aug-01 09:00N 51°53' E 004°27'0 0.0
2018-Aug-01 08:30N 51°53' E 004°27'0 0.0
2018-Aug-01 08:00N 51°53' E 004°27'0 0.0
2018-Aug-01 07:30N 51°53' E 004°27'0 0.0
2018-Aug-01 07:00N 51°53' E 004°27'0 0.0
2018-Aug-01 06:30N 51°53' E 004°27'0 0.0
2018-Aug-01 06:00N 51°53' E 004°27'0 0.0
2018-Aug-01 05:30N 51°53' E 004°27'0 0.0
2018-Aug-01 05:00N 51°53' E 004°27'0 0.0
2018-Aug-01 04:30N 51°53' E 004°27'0 0.0
2018-Aug-01 04:00N 51°53' E 004°27'0 0.0
2018-Aug-01 03:30N 51°53' E 004°27'0 0.0
2018-Aug-01 03:00N 51°53' E 004°27'0 0.0
2018-Aug-01 02:30N 51°53' E 004°27'0 0.0
2018-Aug-01 02:00N 51°53' E 004°27'0 0.0
2018-Aug-01 01:30N 51°53' E 004°27'0 0.0
2018-Aug-01 01:00N 51°53' E 004°27'0 0.0
2018-Jul-31 22:30N 51°53' E 004°27'0 0.0
2018-Jul-31 22:00N 51°53' E 004°27'0 0.0
2018-Jul-31 21:30N 51°53' E 004°27'0 0.0
2018-Jul-31 21:00N 51°53' E 004°27'0 0.6
2018-Jul-31 20:31N 51°53' E 004°27'2 4.5
2018-Jul-31 20:00N 51°54' E 004°23'4 7.8
2018-Jul-31 19:30N 51°54' E 004°17'4 8.2
2018-Jul-31 19:00N 51°56' E 004°11'4 8.9
2018-Jul-31 18:31N 51°59' E 004°05'5 9.7
2018-Jul-31 18:00N 52°00' E 003°58'611.2
2018-Jul-31 17:31N 51°60' E 003°49'4 8.7
2018-Jul-31 17:00N 51°59' E 003°42'612.7
2018-Jul-31 16:30N 51°57' E 003°32'612.6
2018-Jul-31 16:00N 51°54' E 003°23'713.6
2018-Jul-31 15:30N 51°48' E 003°17'510.0
2018-Jul-31 15:00N 51°43' E 003°17'611.0
2018-Jul-31 14:30N 51°38' E 003°21'510.8
2018-Jul-31 14:01N 51°33' E 003°25'510.2
2018-Jul-31 13:31N 51°29' E 003°30'4 8.6
2018-Jul-31 13:00N 51°26' E 003°34'4 7.7
2018-Jul-31 12:30N 51°27' E 003°40'0 0.3
2018-Jul-31 11:58N 51°27' E 003°40'0 0.0
2018-Jul-31 11:28N 51°27' E 003°40'0 0.0
2018-Jul-31 10:58N 51°27' E 003°40'0 0.0
2018-Jul-31 10:28N 51°27' E 003°40'0 0.0
2018-Jul-31 09:58N 51°27' E 003°40'0 0.0
2018-Jul-31 09:25N 51°27' E 003°40'0 0.0
2018-Jul-31 08:55N 51°27' E 003°40'0 0.0
2018-Jul-31 08:25N 51°27' E 003°40'0 0.0
2018-Jul-31 07:58N 51°27' E 003°40'0 0.0
2018-Jul-31 07:25N 51°27' E 003°40'0 0.0
2018-Jul-31 06:58N 51°27' E 003°40'0 0.0
2018-Jul-31 06:28N 51°27' E 003°40'0 0.0
2018-Jul-31 05:58N 51°27' E 003°40'0 0.0
2018-Jul-31 05:28N 51°27' E 003°40'0 0.0
2018-Jul-31 04:55N 51°27' E 003°40'0 0.0
2018-Jul-31 04:28N 51°27' E 003°40'0 0.0
2018-Jul-31 03:58N 51°27' E 003°40'0 0.0
2018-Jul-31 03:28N 51°27' E 003°40'0 0.0
2018-Jul-31 02:58N 51°27' E 003°40'0 0.0
2018-Jul-31 02:28N 51°27' E 003°40'0 0.0
2018-Jul-31 01:58N 51°27' E 003°40'0 0.0
2018-Jul-31 01:28N 51°27' E 003°40'0 0.0
2018-Jul-31 00:58N 51°27' E 003°40'0 0.0
2018-Jul-31 00:28N 51°27' E 003°40'0 0.0
2018-Jul-30 23:58N 51°27' E 003°40'0 0.0
2018-Jul-30 23:28N 51°27' E 003°40'0 0.0
2018-Jul-30 22:58N 51°27' E 003°40'0 0.0
2018-Jul-30 22:28N 51°27' E 003°40'0 0.0
2018-Jul-30 21:55N 51°27' E 003°40'0 0.0
2018-Jul-30 21:28N 51°27' E 003°40'0 0.0
2018-Jul-30 20:58N 51°27' E 003°40'0 0.0
2018-Jul-30 20:28N 51°27' E 003°40'0 0.0
2018-Jul-30 19:58N 51°27' E 003°40'0 0.0
2018-Jul-30 19:28N 51°27' E 003°40'0 0.0
2018-Jul-30 18:58N 51°27' E 003°40'0 0.0
2018-Jul-30 18:28N 51°27' E 003°40'0 0.0
2018-Jul-30 17:58N 51°27' E 003°40'0 0.0
2018-Jul-30 17:28N 51°27' E 003°40'0 0.0
2018-Jul-30 16:58N 51°27' E 003°40'0 0.0
2018-Jul-30 16:28N 51°27' E 003°40'0 0.0
2018-Jul-30 15:58N 51°27' E 003°40'0 0.0
2018-Jul-30 15:28N 51°27' E 003°40'0 0.0
2018-Jul-30 14:58N 51°27' E 003°40'0 0.0
2018-Jul-30 14:25N 51°27' E 003°40'0 0.0
2018-Jul-30 13:58N 51°27' E 003°40'0 0.0
2018-Jul-30 13:25N 51°27' E 003°40'0 0.0
2018-Jul-30 12:55N 51°27' E 003°40'0 0.0
2018-Jul-30 12:28N 51°27' E 003°40'0 0.0
2018-Jul-30 11:55N 51°27' E 003°40'0 0.0
2018-Jul-30 11:28N 51°27' E 003°40'0 0.0
2018-Jul-30 10:58N 51°27' E 003°40'0 0.0
2018-Jul-30 10:22N 51°27' E 003°40'0 0.0
2018-Jul-30 09:58N 51°27' E 003°40'0 0.0
2018-Jul-30 09:28N 51°27' E 003°40'0 0.0
2018-Jul-30 08:58N 51°27' E 003°40'0 0.0
2018-Jul-30 08:28N 51°27' E 003°40'0 0.0
2018-Jul-30 07:58N 51°27' E 003°40'0 0.0
2018-Jul-30 07:28N 51°27' E 003°40'0 0.0
2018-Jul-30 06:58N 51°27' E 003°40'0 0.0
2018-Jul-30 06:28N 51°27' E 003°40'0 0.0
2018-Jul-30 05:58N 51°27' E 003°40'0 0.0
2018-Jul-30 05:28N 51°27' E 003°40'0 0.0
2018-Jul-30 04:58N 51°27' E 003°40'0 0.0
2018-Jul-30 04:22N 51°27' E 003°40'0 0.0
2018-Jul-30 03:55N 51°27' E 003°40'0 0.0
2018-Jul-30 03:28N 51°27' E 003°40'0 0.0
2018-Jul-30 02:58N 51°27' E 003°40'0 0.0
2018-Jul-30 02:28N 51°27' E 003°40'0 0.0
2018-Jul-30 01:58N 51°27' E 003°40'0 0.0
2018-Jul-30 01:25N 51°27' E 003°40'0 0.0
2018-Jul-30 00:58N 51°27' E 003°40'0 0.0
2018-Jul-30 00:28N 51°27' E 003°40'0 0.0
2018-Jul-29 23:58N 51°27' E 003°40'0 0.0
2018-Jul-29 23:28N 51°27' E 003°40'0 0.0
2018-Jul-29 22:58N 51°27' E 003°40'0 0.0
2018-Jul-29 22:28N 51°27' E 003°40'0 0.0
2018-Jul-29 21:58N 51°27' E 003°40'0 0.0
2018-Jul-29 21:25N 51°27' E 003°40'0 0.0
2018-Jul-29 20:58N 51°27' E 003°40'0 0.0
2018-Jul-29 20:28N 51°27' E 003°40'0 0.0
2018-Jul-29 19:58N 51°27' E 003°40'0 0.0
2018-Jul-29 19:28N 51°27' E 003°40'0 0.0
2018-Jul-29 18:55N 51°27' E 003°40'0 0.0
2018-Jul-29 18:28N 51°27' E 003°40'0 0.0
2018-Jul-29 17:58N 51°27' E 003°40'0 0.0
2018-Jul-29 17:28N 51°27' E 003°40'0 0.0
2018-Jul-29 16:55N 51°27' E 003°40'0 0.0
2018-Jul-29 16:28N 51°27' E 003°40'0 0.0
2018-Jul-29 15:58N 51°27' E 003°40'0 0.0
2018-Jul-29 15:28N 51°27' E 003°40'0 0.0
2018-Jul-29 14:58N 51°27' E 003°40'0 0.0
2018-Jul-29 13:58N 51°27' E 003°40'0 0.0
2018-Jul-29 13:28N 51°27' E 003°40'0 0.0
2018-Jul-29 12:58N 51°27' E 003°40'0 0.0
2018-Jul-29 12:28N 51°27' E 003°40'0 0.0
2018-Jul-29 11:58N 51°27' E 003°40'0 0.0
2018-Jul-29 11:28N 51°27' E 003°40'0 0.0
2018-Jul-29 10:58N 51°27' E 003°40'0 0.0
2018-Jul-29 10:28N 51°27' E 003°40'0 0.0
2018-Jul-29 09:58N 51°27' E 003°40'0 0.0
2018-Jul-29 09:28N 51°27' E 003°40'0 0.0
2018-Jul-29 08:58N 51°27' E 003°40'0 0.0
2018-Jul-29 08:25N 51°27' E 003°40'0 0.0
2018-Jul-29 07:58N 51°27' E 003°40'0 0.0
2018-Jul-29 07:28N 51°27' E 003°40'0 0.0
2018-Jul-29 06:58N 51°27' E 003°40'0 0.0
2018-Jul-29 06:28N 51°27' E 003°40'0 0.0
2018-Jul-29 05:58N 51°27' E 003°40'0 0.0
2018-Jul-29 05:28N 51°27' E 003°40'0 0.0
2018-Jul-29 04:58N 51°27' E 003°40'0 0.0
2018-Jul-29 04:28N 51°27' E 003°40'0 0.0
2018-Jul-29 03:58N 51°27' E 003°40'0 0.0
2018-Jul-29 03:28N 51°27' E 003°40'0 0.0
2018-Jul-29 02:58N 51°27' E 003°40'0 0.0
2018-Jul-29 02:28N 51°27' E 003°40'0 0.0
2018-Jul-29 01:58N 51°27' E 003°40'0 0.0
2018-Jul-29 01:28N 51°27' E 003°40'0 0.0
2018-Jul-29 00:55N 51°27' E 003°40'0 0.0
2018-Jul-29 00:28N 51°27' E 003°40'0 0.0
2018-Jul-28 23:58N 51°27' E 003°40'0 0.0
2018-Jul-28 23:28N 51°27' E 003°40'0 0.0
2018-Jul-28 22:58N 51°27' E 003°40'0 0.0
2018-Jul-28 22:28N 51°27' E 003°40'0 0.0
2018-Jul-28 21:58N 51°27' E 003°40'0 0.0
2018-Jul-28 21:28N 51°27' E 003°40'0 0.0
2018-Jul-28 20:55N 51°27' E 003°40'0 0.0
2018-Jul-28 20:25N 51°27' E 003°40'0 0.0
2018-Jul-28 19:58N 51°27' E 003°40'0 0.0
2018-Jul-28 19:28N 51°27' E 003°40'0 0.0
2018-Jul-28 18:58N 51°27' E 003°40'0 0.0
2018-Jul-28 18:28N 51°27' E 003°40'0 0.0
2018-Jul-28 17:55N 51°27' E 003°40'0 0.0
2018-Jul-28 17:28N 51°27' E 003°40'0 0.0
2018-Jul-28 16:55N 51°27' E 003°40'0 0.0
2018-Jul-28 16:28N 51°27' E 003°40'0 0.0
2018-Jul-28 15:58N 51°27' E 003°40'0 0.0
2018-Jul-28 15:28N 51°27' E 003°40'0 0.0
2018-Jul-28 14:58N 51°27' E 003°40'0 0.0
2018-Jul-28 14:28N 51°27' E 003°40'0 0.0
2018-Jul-28 13:58N 51°27' E 003°40'0 0.0
2018-Jul-28 13:28N 51°27' E 003°40'0 0.0
2018-Jul-28 12:58N 51°27' E 003°40'0 0.0
2018-Jul-28 12:25N 51°27' E 003°40'0 0.0
2018-Jul-28 11:58N 51°27' E 003°40'0 0.0
2018-Jul-28 11:28N 51°27' E 003°40'0 0.0
2018-Jul-28 10:58N 51°27' E 003°40'0 0.0
2018-Jul-28 10:28N 51°27' E 003°40'0 0.0
2018-Jul-28 09:58N 51°27' E 003°40'0 0.0
2018-Jul-28 09:28N 51°27' E 003°40'0 0.0
2018-Jul-28 08:58N 51°27' E 003°40'0 0.0
2018-Jul-28 08:28N 51°27' E 003°40'0 0.0
2018-Jul-28 07:55N 51°27' E 003°40'0 0.0
2018-Jul-28 07:28N 51°27' E 003°40'0 0.0
2018-Jul-28 06:55N 51°27' E 003°40'0 0.0
2018-Jul-28 06:28N 51°27' E 003°40'0 0.0
2018-Jul-28 05:58N 51°27' E 003°40'0 0.0
2018-Jul-28 05:28N 51°27' E 003°40'0 0.0
2018-Jul-28 04:58N 51°27' E 003°40'0 0.0
2018-Jul-28 04:28N 51°27' E 003°40'  
Track history (hours):
 
Tides and Currents Weather Stations Pressure Air Temp Water Temp Dewpoint Dewpoint Depression Visibility Wind Speed Wind Dir Waves Ship Positions

Super Servant 4

Last reported at 2018-Aug-07 04:26 UTC. Time now 2018-Aug-21 04:19 UTC.
Position N 40°52' W 011°06'.
Warning: this ship's position is 13 days out of date.

Length 139 m; beam 32 m.

Type: Cargo ship. MMSI: 306157000.

Date/timePositionNaut miles runAvg speedWind from/ knotsBaromVisibWave heightAir tempDewpointWater temp
2018-Aug-07 04:26N 40°52' W 011°06'611.9
2018-Aug-07 03:57N 40°57' W 011°03'51912.5
2018-Aug-05 10:20N 48°47' W 005°53'512.2
2018-Aug-05 09:55N 48°51' W 005°49'511.5
2018-Aug-05 09:30N 48°55' W 005°45'1211.4
2018-Aug-05 08:28N 49°01' W 005°30'4 8.2
2018-Aug-05 07:59N 49°03' W 005°25'5 9.6
2018-Aug-05 07:29N 49°06' W 005°18'611.8
2018-Aug-05 06:59N 49°09' W 005°11'612.0
2018-Aug-05 06:30N 49°12' W 005°03'612.6
2018-Aug-05 06:01N 49°15' W 004°55'713.1
2018-Aug-05 05:30N 49°19' W 004°47'1313.5
2018-Aug-05 04:32N 49°25' W 004°29'013.7
2018-Aug-05 04:30N 49°25' W 004°29'713.7
2018-Aug-05 03:59N 49°29' W 004°19'1613.5
2018-Aug-05 02:49N 49°37' W 003°58'413.0
2018-Aug-05 02:30N 49°39' W 003°53'612.8
2018-Aug-05 02:00N 49°42' W 003°44'812.5
2018-Aug-05 01:20N 49°46' W 003°33'512.1
2018-Aug-05 00:56N 49°49' W 003°27'511.9
2018-Aug-05 00:31N 49°52' W 003°20'611.8
2018-Aug-05 00:01N 49°54' W 003°12'611.6
2018-Aug-04 23:31N 49°57' W 003°04'611.7
2018-Aug-04 23:01N 49°60' W 002°56'611.8
2018-Aug-04 22:31N 50°02' W 002°47'612.0
2018-Aug-04 22:00N 50°03' W 002°38'612.4
2018-Aug-04 21:30N 50°05' W 002°29'612.8
2018-Aug-04 21:00N 50°06' W 002°19'713.4
2018-Aug-04 20:31N 50°08' W 002°09'713.9
2018-Aug-04 20:00N 50°10' W 001°59'1814.6
2018-Aug-04 18:46N 50°15' W 001°32'2814.4
2018-Aug-04 16:50N 50°22' W 000°49'1612.6
2018-Aug-04 15:35N 50°26' W 000°26'112.0
2018-Aug-04 15:30N 50°26' W 000°24'1311.4
2018-Aug-04 14:20N 50°30' W 000°04'410.8
2018-Aug-04 13:59N 50°31' E 000°01'710.8
2018-Aug-04 13:21N 50°33' E 000°12'410.7
2018-Aug-04 13:00N 50°34' E 000°18'611.1
2018-Aug-04 12:30N 50°35' E 000°26'611.7
2018-Aug-04 12:00N 50°37' E 000°35'612.4
2018-Aug-04 11:30N 50°41' E 000°43'713.2
2018-Aug-04 11:00N 50°45' E 000°51'713.7
2018-Aug-04 10:30N 50°48' E 001°00'714.0
2018-Aug-04 10:00N 50°53' E 001°09'714.1
2018-Aug-04 09:30N 50°58' E 001°17'714.0
2018-Aug-04 09:00N 51°02' E 001°25'713.1
2018-Aug-04 08:30N 51°07' E 001°33'612.1
2018-Aug-04 08:00N 51°11' E 001°40'611.7
2018-Aug-04 07:30N 51°15' E 001°47'611.2
2018-Aug-04 07:00N 51°20' E 001°51'510.9
2018-Aug-04 06:30N 51°25' E 001°55'510.8
2018-Aug-04 06:00N 51°29' E 001°59'510.9
2018-Aug-04 05:30N 51°33' E 002°05'611.1
2018-Aug-04 05:00N 51°38' E 002°11'611.3
2018-Aug-04 04:30N 51°42' E 002°17'611.7
2018-Aug-04 04:00N 51°46' E 002°23'612.2
2018-Aug-04 03:30N 51°51' E 002°30'612.7
2018-Aug-04 03:00N 51°55' E 002°37'612.8
2018-Aug-04 02:30N 51°59' E 002°45'713.1
2018-Aug-04 02:00N 52°02' E 002°55'612.6
2018-Aug-04 01:30N 52°03' E 003°05'612.9
2018-Aug-04 01:00N 52°04' E 003°15'713.0
2018-Aug-04 00:30N 52°04' E 003°26'713.0
2018-Aug-04 00:00N 52°04' E 003°36'612.5
2018-Aug-03 23:30N 52°03' E 003°46'511.0
2018-Aug-03 23:00N 52°02' E 003°55'510.9
2018-Aug-03 22:30N 51°59' E 004°03'612.4
2018-Aug-03 22:00N 51°56' E 004°12'611.1
2018-Aug-03 21:30N 51°54' E 004°20'4 7.8
2018-Aug-03 21:01N 51°54' E 004°26'1 2.4
2018-Aug-03 20:30N 51°53' E 004°27'0 0.0
2018-Aug-03 20:00N 51°53' E 004°27'0 0.0
2018-Aug-03 19:30N 51°53' E 004°27'0 0.0
2018-Aug-03 19:00N 51°53' E 004°27'0 0.0
2018-Aug-03 18:30N 51°53' E 004°27'0 0.0
2018-Aug-03 18:00N 51°53' E 004°27'0 0.0
2018-Aug-03 17:30N 51°53' E 004°27'0 0.0
2018-Aug-03 17:00N 51°53' E 004°27'0 0.0
2018-Aug-03 16:30N 51°53' E 004°27'0 0.0
2018-Aug-03 16:00N 51°53' E 004°27'0 0.0
2018-Aug-03 15:30N 51°53' E 004°27'0 0.0
2018-Aug-03 15:00N 51°53' E 004°27'0 0.0
2018-Aug-03 14:30N 51°53' E 004°27'0 0.0
2018-Aug-03 14:00N 51°53' E 004°27'0 0.0
2018-Aug-03 13:30N 51°53' E 004°27'0 0.0
2018-Aug-03 13:00N 51°53' E 004°27'0 0.0
2018-Aug-03 12:30N 51°53' E 004°27'0 0.0
2018-Aug-03 12:00N 51°53' E 004°27'0 0.0
2018-Aug-03 11:30N 51°53' E 004°27'0 0.0
2018-Aug-03 11:00N 51°53' E 004°27'0 0.0
2018-Aug-03 10:30N 51°53' E 004°27'0 0.0
2018-Aug-03 10:00N 51°53' E 004°27'0 0.0
2018-Aug-03 09:30N 51°53' E 004°27'0 0.0
2018-Aug-03 09:00N 51°53' E 004°27'0 0.0
2018-Aug-03 08:30N 51°53' E 004°27'0 0.0
2018-Aug-03 08:00N 51°53' E 004°27'0 0.0
2018-Aug-03 07:30N 51°53' E 004°27'0 0.0
2018-Aug-03 07:00N 51°53' E 004°27'0 0.0
2018-Aug-03 06:30N 51°53' E 004°27'0 0.0
2018-Aug-03 06:00N 51°53' E 004°27'0 0.0
2018-Aug-03 05:30N 51°53' E 004°27'0 0.0
2018-Aug-03 05:00N 51°53' E 004°27'0 0.0
2018-Aug-03 04:30N 51°53' E 004°27'0 0.0
2018-Aug-03 04:00N 51°53' E 004°27'0 0.0
2018-Aug-03 03:30N 51°53' E 004°27'0 0.0
2018-Aug-03 03:00N 51°53' E 004°27'0 0.0
2018-Aug-03 02:30N 51°53' E 004°27'0 0.0
2018-Aug-03 02:00N 51°53' E 004°27'0 0.0
2018-Aug-03 01:30N 51°53' E 004°27'0 0.0
2018-Aug-03 01:00N 51°53' E 004°27'0 0.0
2018-Aug-03 00:30N 51°53' E 004°27'0 0.0
2018-Aug-03 00:00N 51°53' E 004°27'0 0.0
2018-Aug-02 23:30N 51°53' E 004°27'0 0.0
2018-Aug-02 23:00N 51°53' E 004°27'0 0.0
2018-Aug-02 22:30N 51°53' E 004°27'0 0.0
2018-Aug-02 22:00N 51°53' E 004°27'0 0.0
2018-Aug-02 21:30N 51°53' E 004°27'0 0.0
2018-Aug-02 21:00N 51°53' E 004°27'0 0.0
2018-Aug-02 20:30N 51°53' E 004°27'0 0.0
2018-Aug-02 20:00N 51°53' E 004°27'0 0.0
2018-Aug-02 19:30N 51°53' E 004°27'0 0.0
2018-Aug-02 19:00N 51°53' E 004°27'0 0.0
2018-Aug-02 18:30N 51°53' E 004°27'0 0.0
2018-Aug-02 18:00N 51°53' E 004°27'0 0.0
2018-Aug-02 17:30N 51°53' E 004°27'0 0.0
2018-Aug-02 17:00N 51°53' E 004°27'0 0.0
2018-Aug-02 16:30N 51°53' E 004°27'0 0.0
2018-Aug-02 16:00N 51°53' E 004°27'0 0.0
2018-Aug-02 15:30N 51°53' E 004°27'0 0.0
2018-Aug-02 15:00N 51°53' E 004°27'0 0.0
2018-Aug-02 14:30N 51°53' E 004°27'0 0.0
2018-Aug-02 14:00N 51°53' E 004°27'0 0.0
2018-Aug-02 13:30N 51°53' E 004°27'0 0.0
2018-Aug-02 13:00N 51°53' E 004°27'0 0.0
2018-Aug-02 12:30N 51°53' E 004°27'0 0.0
2018-Aug-02 12:00N 51°53' E 004°27'0 0.0
2018-Aug-02 11:30N 51°53' E 004°27'0 0.0
2018-Aug-02 11:00N 51°53' E 004°27'0 0.0
2018-Aug-02 10:30N 51°53' E 004°27'0 0.0
2018-Aug-02 10:00N 51°53' E 004°27'0 0.0
2018-Aug-02 09:30N 51°53' E 004°27'0 0.0
2018-Aug-02 09:00N 51°53' E 004°27'0 0.0
2018-Aug-02 08:30N 51°53' E 004°27'0 0.0
2018-Aug-02 08:00N 51°53' E 004°27'0 0.0
2018-Aug-02 07:30N 51°53' E 004°27'0 0.0
2018-Aug-02 07:00N 51°53' E 004°27'0 0.0
2018-Aug-02 06:30N 51°53' E 004°27'0 0.0
2018-Aug-02 06:00N 51°53' E 004°27'0 0.0
2018-Aug-02 05:30N 51°53' E 004°27'0 0.0
2018-Aug-02 05:00N 51°53' E 004°27'0 0.0
2018-Aug-02 04:30N 51°53' E 004°27'0 0.0
2018-Aug-02 04:00N 51°53' E 004°27'0 0.0
2018-Aug-02 03:30N 51°53' E 004°27'0 0.0
2018-Aug-02 03:00N 51°53' E 004°27'0 0.0
2018-Aug-02 02:30N 51°53' E 004°27'0 0.0
2018-Aug-02 02:00N 51°53' E 004°27'0 0.0
2018-Aug-02 01:30N 51°53' E 004°27'0 0.0
2018-Aug-02 00:57N 51°53' E 004°27'0 0.0
2018-Aug-02 00:30N 51°53' E 004°27'0 0.0
2018-Aug-02 00:00N 51°53' E 004°27'0 0.0
2018-Aug-01 23:30N 51°53' E 004°27'0 0.0
2018-Aug-01 23:00N 51°53' E 004°27'0 0.0
2018-Aug-01 22:30N 51°53' E 004°27'0 0.0
2018-Aug-01 22:00N 51°53' E 004°27'0 0.0
2018-Aug-01 21:30N 51°53' E 004°27'0 0.0
2018-Aug-01 21:00N 51°53' E 004°27'0 0.0
2018-Aug-01 20:30N 51°53' E 004°27'0 0.0
2018-Aug-01 20:00N 51°53' E 004°27'0 0.0
2018-Aug-01 19:30N 51°53' E 004°27'0 0.0
2018-Aug-01 19:00N 51°53' E 004°27'0 0.0
2018-Aug-01 18:30N 51°53' E 004°27'0 0.0
2018-Aug-01 18:00N 51°53' E 004°27'0 0.0
2018-Aug-01 17:30N 51°53' E 004°27'0 0.0
2018-Aug-01 17:00N 51°53' E 004°27'0 0.0
2018-Aug-01 16:30N 51°53' E 004°27'0 0.0
2018-Aug-01 16:00N 51°53' E 004°27'0 0.0
2018-Aug-01 15:30N 51°53' E 004°27'0 0.0
2018-Aug-01 15:00N 51°53' E 004°27'0 0.0
2018-Aug-01 14:00N 51°53' E 004°27'0 0.0
2018-Aug-01 13:30N 51°53' E 004°27'0 0.0
2018-Aug-01 13:00N 51°53' E 004°27'0 0.0
2018-Aug-01 12:30N 51°53' E 004°27'0 0.0
2018-Aug-01 12:00N 51°53' E 004°27'0 0.0
2018-Aug-01 11:30N 51°53' E 004°27'0 0.0
2018-Aug-01 11:00N 51°53' E 004°27'0 0.0
2018-Aug-01 10:30N 51°53' E 004°27'0 0.0
2018-Aug-01 10:00N 51°53' E 004°27'0 0.0
2018-Aug-01 09:30N 51°53' E 004°27'0 0.0
2018-Aug-01 09:00N 51°53' E 004°27'0 0.0
2018-Aug-01 08:30N 51°53' E 004°27'0 0.0
2018-Aug-01 08:00N 51°53' E 004°27'0 0.0
2018-Aug-01 07:30N 51°53' E 004°27'0 0.0
2018-Aug-01 07:00N 51°53' E 004°27'0 0.0
2018-Aug-01 06:30N 51°53' E 004°27'0 0.0
2018-Aug-01 06:00N 51°53' E 004°27'0 0.0
2018-Aug-01 05:30N 51°53' E 004°27'0 0.0
2018-Aug-01 05:00N 51°53' E 004°27'0 0.0
2018-Aug-01 04:30N 51°53' E 004°27'0 0.0
2018-Aug-01 04:00N 51°53' E 004°27'0 0.0
2018-Aug-01 03:30N 51°53' E 004°27'0 0.0
2018-Aug-01 03:00N 51°53' E 004°27'0 0.0
2018-Aug-01 02:30N 51°53' E 004°27'0 0.0
2018-Aug-01 02:00N 51°53' E 004°27'0 0.0
2018-Aug-01 01:30N 51°53' E 004°27'0 0.0
2018-Aug-01 01:00N 51°53' E 004°27'0 0.0
2018-Jul-31 22:30N 51°53' E 004°27'0 0.0
2018-Jul-31 22:00N 51°53' E 004°27'0 0.0
2018-Jul-31 21:30N 51°53' E 004°27'0 0.0
2018-Jul-31 21:00N 51°53' E 004°27'0 0.6
2018-Jul-31 20:31N 51°53' E 004°27'2 4.5
2018-Jul-31 20:00N 51°54' E 004°23'4 7.8
2018-Jul-31 19:30N 51°54' E 004°17'4 8.2
2018-Jul-31 19:00N 51°56' E 004°11'4 8.9
2018-Jul-31 18:31N 51°59' E 004°05'5 9.7
2018-Jul-31 18:00N 52°00' E 003°58'611.2
2018-Jul-31 17:31N 51°60' E 003°49'4 8.7
2018-Jul-31 17:00N 51°59' E 003°42'612.7
2018-Jul-31 16:30N 51°57' E 003°32'612.6
2018-Jul-31 16:00N 51°54' E 003°23'713.6
2018-Jul-31 15:30N 51°48' E 003°17'510.0
2018-Jul-31 15:00N 51°43' E 003°17'611.0
2018-Jul-31 14:30N 51°38' E 003°21'510.8
2018-Jul-31 14:01N 51°33' E 003°25'510.2
2018-Jul-31 13:31N 51°29' E 003°30'4 8.6
2018-Jul-31 13:00N 51°26' E 003°34'4 7.7
2018-Jul-31 12:30N 51°27' E 003°40'0 0.3
2018-Jul-31 11:58N 51°27' E 003°40'0 0.0
2018-Jul-31 11:28N 51°27' E 003°40'0 0.0
2018-Jul-31 10:58N 51°27' E 003°40'0 0.0
2018-Jul-31 10:28N 51°27' E 003°40'0 0.0
2018-Jul-31 09:58N 51°27' E 003°40'0 0.0
2018-Jul-31 09:25N 51°27' E 003°40'0 0.0
2018-Jul-31 08:55N 51°27' E 003°40'0 0.0
2018-Jul-31 08:25N 51°27' E 003°40'0 0.0
2018-Jul-31 07:58N 51°27' E 003°40'0 0.0
2018-Jul-31 07:25N 51°27' E 003°40'0 0.0
2018-Jul-31 06:58N 51°27' E 003°40'0 0.0
2018-Jul-31 06:28N 51°27' E 003°40'0 0.0
2018-Jul-31 05:58N 51°27' E 003°40'0 0.0
2018-Jul-31 05:28N 51°27' E 003°40'0 0.0
2018-Jul-31 04:55N 51°27' E 003°40'0 0.0
2018-Jul-31 04:28N 51°27' E 003°40'0 0.0
2018-Jul-31 03:58N 51°27' E 003°40'0 0.0
2018-Jul-31 03:28N 51°27' E 003°40'0 0.0
2018-Jul-31 02:58N 51°27' E 003°40'0 0.0
2018-Jul-31 02:28N 51°27' E 003°40'0 0.0
2018-Jul-31 01:58N 51°27' E 003°40'0 0.0
2018-Jul-31 01:28N 51°27' E 003°40'0 0.0
2018-Jul-31 00:58N 51°27' E 003°40'0 0.0
2018-Jul-31 00:28N 51°27' E 003°40'0 0.0
2018-Jul-30 23:58N 51°27' E 003°40'0 0.0
2018-Jul-30 23:28N 51°27' E 003°40'0 0.0
2018-Jul-30 22:58N 51°27' E 003°40'0 0.0
2018-Jul-30 22:28N 51°27' E 003°40'0 0.0
2018-Jul-30 21:55N 51°27' E 003°40'0 0.0
2018-Jul-30 21:28N 51°27' E 003°40'0 0.0
2018-Jul-30 20:58N 51°27' E 003°40'0 0.0
2018-Jul-30 20:28N 51°27' E 003°40'0 0.0
2018-Jul-30 19:58N 51°27' E 003°40'0 0.0
2018-Jul-30 19:28N 51°27' E 003°40'0 0.0
2018-Jul-30 18:58N 51°27' E 003°40'0 0.0
2018-Jul-30 18:28N 51°27' E 003°40'0 0.0
2018-Jul-30 17:58N 51°27' E 003°40'0 0.0
2018-Jul-30 17:28N 51°27' E 003°40'0 0.0
2018-Jul-30 16:58N 51°27' E 003°40'0 0.0
2018-Jul-30 16:28N 51°27' E 003°40'0 0.0
2018-Jul-30 15:58N 51°27' E 003°40'0 0.0
2018-Jul-30 15:28N 51°27' E 003°40'0 0.0
2018-Jul-30 14:58N 51°27' E 003°40'0 0.0
2018-Jul-30 14:25N 51°27' E 003°40'0 0.0
2018-Jul-30 13:58N 51°27' E 003°40'0 0.0
2018-Jul-30 13:25N 51°27' E 003°40'0 0.0
2018-Jul-30 12:55N 51°27' E 003°40'0 0.0
2018-Jul-30 12:28N 51°27' E 003°40'0 0.0
2018-Jul-30 11:55N 51°27' E 003°40'0 0.0
2018-Jul-30 11:28N 51°27' E 003°40'0 0.0
2018-Jul-30 10:58N 51°27' E 003°40'0 0.0
2018-Jul-30 10:22N 51°27' E 003°40'0 0.0
2018-Jul-30 09:58N 51°27' E 003°40'0 0.0
2018-Jul-30 09:28N 51°27' E 003°40'0 0.0
2018-Jul-30 08:58N 51°27' E 003°40'0 0.0
2018-Jul-30 08:28N 51°27' E 003°40'0 0.0
2018-Jul-30 07:58N 51°27' E 003°40'0 0.0
2018-Jul-30 07:28N 51°27' E 003°40'0 0.0
2018-Jul-30 06:58N 51°27' E 003°40'0 0.0
2018-Jul-30 06:28N 51°27' E 003°40'0 0.0
2018-Jul-30 05:58N 51°27' E 003°40'0 0.0
2018-Jul-30 05:28N 51°27' E 003°40'0 0.0
2018-Jul-30 04:58N 51°27' E 003°40'0 0.0
2018-Jul-30 04:22N 51°27' E 003°40'0 0.0
2018-Jul-30 03:55N 51°27' E 003°40'0 0.0
2018-Jul-30 03:28N 51°27' E 003°40'0 0.0
2018-Jul-30 02:58N 51°27' E 003°40'0 0.0
2018-Jul-30 02:28N 51°27' E 003°40'0 0.0
2018-Jul-30 01:58N 51°27' E 003°40'0 0.0
2018-Jul-30 01:25N 51°27' E 003°40'0 0.0
2018-Jul-30 00:58N 51°27' E 003°40'0 0.0
2018-Jul-30 00:28N 51°27' E 003°40'0 0.0
2018-Jul-29 23:58N 51°27' E 003°40'0 0.0
2018-Jul-29 23:28N 51°27' E 003°40'0 0.0
2018-Jul-29 22:58N 51°27' E 003°40'0 0.0
2018-Jul-29 22:28N 51°27' E 003°40'0 0.0
2018-Jul-29 21:58N 51°27' E 003°40'0 0.0
2018-Jul-29 21:25N 51°27' E 003°40'0 0.0
2018-Jul-29 20:58N 51°27' E 003°40'0 0.0
2018-Jul-29 20:28N 51°27' E 003°40'0 0.0
2018-Jul-29 19:58N 51°27' E 003°40'0 0.0
2018-Jul-29 19:28N 51°27' E 003°40'0 0.0
2018-Jul-29 18:55N 51°27' E 003°40'0 0.0
2018-Jul-29 18:28N 51°27' E 003°40'0 0.0
2018-Jul-29 17:58N 51°27' E 003°40'0 0.0
2018-Jul-29 17:28N 51°27' E 003°40'0 0.0
2018-Jul-29 16:55N 51°27' E 003°40'0 0.0
2018-Jul-29 16:28N 51°27' E 003°40'0 0.0
2018-Jul-29 15:58N 51°27' E 003°40'0 0.0
2018-Jul-29 15:28N 51°27' E 003°40'0 0.0
2018-Jul-29 14:58N 51°27' E 003°40'0 0.0
2018-Jul-29 13:58N 51°27' E 003°40'0 0.0
2018-Jul-29 13:28N 51°27' E 003°40'0 0.0
2018-Jul-29 12:58N 51°27' E 003°40'0 0.0
2018-Jul-29 12:28N 51°27' E 003°40'0 0.0
2018-Jul-29 11:58N 51°27' E 003°40'0 0.0
2018-Jul-29 11:28N 51°27' E 003°40'0 0.0
2018-Jul-29 10:58N 51°27' E 003°40'0 0.0
2018-Jul-29 10:28N 51°27' E 003°40'0 0.0
2018-Jul-29 09:58N 51°27' E 003°40'0 0.0
2018-Jul-29 09:28N 51°27' E 003°40'0 0.0
2018-Jul-29 08:58N 51°27' E 003°40'0 0.0
2018-Jul-29 08:25N 51°27' E 003°40'0 0.0
2018-Jul-29 07:58N 51°27' E 003°40'0 0.0
2018-Jul-29 07:28N 51°27' E 003°40'0 0.0
2018-Jul-29 06:58N 51°27' E 003°40'0 0.0
2018-Jul-29 06:28N 51°27' E 003°40'0 0.0
2018-Jul-29 05:58N 51°27' E 003°40'0 0.0
2018-Jul-29 05:28N 51°27' E 003°40'0 0.0
2018-Jul-29 04:58N 51°27' E 003°40'0 0.0
2018-Jul-29 04:28N 51°27' E 003°40'0 0.0
2018-Jul-29 03:58N 51°27' E 003°40'0 0.0
2018-Jul-29 03:28N 51°27' E 003°40'0 0.0
2018-Jul-29 02:58N 51°27' E 003°40'0 0.0
2018-Jul-29 02:28N 51°27' E 003°40'0 0.0
2018-Jul-29 01:58N 51°27' E 003°40'0 0.0
2018-Jul-29 01:28N 51°27' E 003°40'0 0.0
2018-Jul-29 00:55N 51°27' E 003°40'0 0.0
2018-Jul-29 00:28N 51°27' E 003°40'0 0.0
2018-Jul-28 23:58N 51°27' E 003°40'0 0.0
2018-Jul-28 23:28N 51°27' E 003°40'0 0.0
2018-Jul-28 22:58N 51°27' E 003°40'0 0.0
2018-Jul-28 22:28N 51°27' E 003°40'0 0.0
2018-Jul-28 21:58N 51°27' E 003°40'0 0.0
2018-Jul-28 21:28N 51°27' E 003°40'0 0.0
2018-Jul-28 20:55N 51°27' E 003°40'0 0.0
2018-Jul-28 20:25N 51°27' E 003°40'0 0.0
2018-Jul-28 19:58N 51°27' E 003°40'0 0.0
2018-Jul-28 19:28N 51°27' E 003°40'0 0.0
2018-Jul-28 18:58N 51°27' E 003°40'0 0.0
2018-Jul-28 18:28N 51°27' E 003°40'0 0.0
2018-Jul-28 17:55N 51°27' E 003°40'0 0.0
2018-Jul-28 17:28N 51°27' E 003°40'0 0.0
2018-Jul-28 16:55N 51°27' E 003°40'0 0.0
2018-Jul-28 16:28N 51°27' E 003°40'0 0.0
2018-Jul-28 15:58N 51°27' E 003°40'0 0.0
2018-Jul-28 15:28N 51°27' E 003°40'0 0.0
2018-Jul-28 14:58N 51°27' E 003°40'0 0.0
2018-Jul-28 14:28N 51°27' E 003°40'0 0.0
2018-Jul-28 13:58N 51°27' E 003°40'0 0.0
2018-Jul-28 13:28N 51°27' E 003°40'0 0.0
2018-Jul-28 12:58N 51°27' E 003°40'0 0.0
2018-Jul-28 12:25N 51°27' E 003°40'0 0.0
2018-Jul-28 11:58N 51°27' E 003°40'0 0.0
2018-Jul-28 11:28N 51°27' E 003°40'0 0.0
2018-Jul-28 10:58N 51°27' E 003°40'0 0.0
2018-Jul-28 10:28N 51°27' E 003°40'0 0.0
2018-Jul-28 09:58N 51°27' E 003°40'0 0.0
2018-Jul-28 09:28N 51°27' E 003°40'0 0.0
2018-Jul-28 08:58N 51°27' E 003°40'0 0.0
2018-Jul-28 08:28N 51°27' E 003°40'0 0.0
2018-Jul-28 07:55N 51°27' E 003°40'0 0.0
2018-Jul-28 07:28N 51°27' E 003°40'0 0.0
2018-Jul-28 06:55N 51°27' E 003°40'0 0.0
2018-Jul-28 06:28N 51°27' E 003°40'0 0.0
2018-Jul-28 05:58N 51°27' E 003°40'0 0.0
2018-Jul-28 05:28N 51°27' E 003°40'0 0.0
2018-Jul-28 04:58N 51°27' E 003°40'0 0.0
2018-Jul-28 04:28N 51°27' E 003°40'  

Dump ship's entire track history